sensor_id;sensor_type;location;lat;lon;timestamp;pressure;altitude;pressure_sealevel;temperature;humidity
41044;BME280;51680;49.806;18.774;2022-09-09T00:01:27;97165.47;;;20.21;86.18
41044;BME280;51680;49.806;18.774;2022-09-09T00:04:36;97164.13;;;20.17;86.18
41044;BME280;51680;49.806;18.774;2022-09-09T00:07:43;97155.69;;;20.13;86.35
41044;BME280;51680;49.806;18.774;2022-09-09T00:10:53;97160.13;;;20.13;86.22
41044;BME280;51680;49.806;18.774;2022-09-09T00:14:00;97147.88;;;20.12;86.24
41044;BME280;51680;49.806;18.774;2022-09-09T00:17:14;97153.84;;;20.14;85.88
41044;BME280;51680;49.806;18.774;2022-09-09T00:20:25;97162.88;;;20.03;86.42
41044;BME280;51680;49.806;18.774;2022-09-09T00:23:31;97163.06;;;20.02;86.40
41044;BME280;51680;49.806;18.774;2022-09-09T00:26:38;97164.38;;;19.98;86.44
41044;BME280;51680;49.806;18.774;2022-09-09T00:29:43;97172.94;;;19.84;86.74
41044;BME280;51680;49.806;18.774;2022-09-09T00:32:46;97176.25;;;19.86;86.55
41044;BME280;51680;49.806;18.774;2022-09-09T00:35:51;97171.13;;;19.84;86.69
41044;BME280;51680;49.806;18.774;2022-09-09T00:38:57;97182.19;;;19.80;86.79
41044;BME280;51680;49.806;18.774;2022-09-09T00:42:13;97181.88;;;19.83;86.90
41044;BME280;51680;49.806;18.774;2022-09-09T00:45:26;97189.84;;;19.83;86.58
41044;BME280;51680;49.806;18.774;2022-09-09T00:48:36;97187.19;;;19.83;86.57
41044;BME280;51680;49.806;18.774;2022-09-09T00:51:52;97193.78;;;19.79;86.83
41044;BME280;51680;49.806;18.774;2022-09-09T00:55:04;97192.75;;;19.72;86.94
41044;BME280;51680;49.806;18.774;2022-09-09T00:58:08;97202.38;;;19.73;86.82
41044;BME280;51680;49.806;18.774;2022-09-09T01:01:12;97199.53;;;19.74;86.77
41044;BME280;51680;49.806;18.774;2022-09-09T01:04:17;97196.72;;;19.68;86.96
41044;BME280;51680;49.806;18.774;2022-09-09T01:07:23;97195.72;;;19.69;86.73
41044;BME280;51680;49.806;18.774;2022-09-09T01:10:30;97196.38;;;19.63;87.06
41044;BME280;51680;49.806;18.774;2022-09-09T01:13:38;97198.13;;;19.54;87.00
41044;BME280;51680;49.806;18.774;2022-09-09T01:16:44;97202.41;;;19.47;87.17
41044;BME280;51680;49.806;18.774;2022-09-09T01:19:56;97198.75;;;19.48;87.33
41044;BME280;51680;49.806;18.774;2022-09-09T01:23:11;97197.63;;;19.51;87.08
41044;BME280;51680;49.806;18.774;2022-09-09T01:26:28;97204.56;;;19.52;86.96
41044;BME280;51680;49.806;18.774;2022-09-09T01:29:35;97202.91;;;19.51;86.59
41044;BME280;51680;49.806;18.774;2022-09-09T01:32:40;97201.78;;;19.53;86.35
41044;BME280;51680;49.806;18.774;2022-09-09T01:35:47;97213.22;;;19.54;86.52
41044;BME280;51680;49.806;18.774;2022-09-09T01:38:52;97208.22;;;19.51;86.35
41044;BME280;51680;49.806;18.774;2022-09-09T01:41:56;97212.84;;;19.49;86.42
41044;BME280;51680;49.806;18.774;2022-09-09T01:44:58;97209.50;;;19.47;86.40
41044;BME280;51680;49.806;18.774;2022-09-09T01:48:00;97209.34;;;19.48;86.37
41044;BME280;51680;49.806;18.774;2022-09-09T01:51:18;97209.88;;;19.52;86.17
41044;BME280;51680;49.806;18.774;2022-09-09T01:54:23;97214.53;;;19.58;85.83
41044;BME280;51680;49.806;18.774;2022-09-09T01:57:31;97206.97;;;19.63;85.55
41044;BME280;51680;49.806;18.774;2022-09-09T02:00:36;97211.94;;;19.66;85.59
41044;BME280;51680;49.806;18.774;2022-09-09T02:03:44;97223.53;;;19.65;85.64
41044;BME280;51680;49.806;18.774;2022-09-09T02:06:55;97226.81;;;19.67;85.42
41044;BME280;51680;49.806;18.774;2022-09-09T02:10:07;97225.53;;;19.71;85.34
41044;BME280;51680;49.806;18.774;2022-09-09T02:13:16;97233.16;;;19.74;85.30
41044;BME280;51680;49.806;18.774;2022-09-09T02:16:23;97223.94;;;19.78;85.20
41044;BME280;51680;49.806;18.774;2022-09-09T02:19:32;97236.63;;;19.74;85.42
41044;BME280;51680;49.806;18.774;2022-09-09T02:22:54;97237.28;;;19.68;85.70
41044;BME280;51680;49.806;18.774;2022-09-09T02:25:58;97237.78;;;19.72;85.69
41044;BME280;51680;49.806;18.774;2022-09-09T02:29:05;97247.06;;;19.76;85.54
41044;BME280;51680;49.806;18.774;2022-09-09T02:32:13;97250.66;;;19.67;85.83
41044;BME280;51680;49.806;18.774;2022-09-09T02:35:19;97246.00;;;19.61;86.04
41044;BME280;51680;49.806;18.774;2022-09-09T02:38:24;97245.34;;;19.59;86.03
41044;BME280;51680;49.806;18.774;2022-09-09T02:41:39;97253.28;;;19.59;86.04
41044;BME280;51680;49.806;18.774;2022-09-09T02:44:43;97258.16;;;19.46;86.92
41044;BME280;51680;49.806;18.774;2022-09-09T02:47:50;97263.19;;;19.57;86.05
41044;BME280;51680;49.806;18.774;2022-09-09T02:51:02;97262.94;;;19.68;85.75
41044;BME280;51680;49.806;18.774;2022-09-09T02:54:12;97261.97;;;19.69;85.73
41044;BME280;51680;49.806;18.774;2022-09-09T02:57:21;97264.44;;;19.70;85.63
41044;BME280;51680;49.806;18.774;2022-09-09T03:00:27;97265.25;;;19.63;85.75
41044;BME280;51680;49.806;18.774;2022-09-09T03:03:34;97258.75;;;19.57;86.06
41044;BME280;51680;49.806;18.774;2022-09-09T03:06:41;97253.22;;;19.51;86.02
41044;BME280;51680;49.806;18.774;2022-09-09T03:09:51;97258.47;;;19.43;86.30
41044;BME280;51680;49.806;18.774;2022-09-09T03:12:58;97267.72;;;19.39;86.23
41044;BME280;51680;49.806;18.774;2022-09-09T03:16:05;97273.25;;;19.28;86.56
41044;BME280;51680;49.806;18.774;2022-09-09T03:19:12;97273.19;;;19.20;86.58
41044;BME280;51680;49.806;18.774;2022-09-09T03:22:15;97274.63;;;19.14;86.48
41044;BME280;51680;49.806;18.774;2022-09-09T03:25:18;97276.41;;;19.14;86.44
41044;BME280;51680;49.806;18.774;2022-09-09T03:28:21;97276.78;;;19.19;86.65
41044;BME280;51680;49.806;18.774;2022-09-09T03:31:26;97282.25;;;19.00;88.52
41044;BME280;51680;49.806;18.774;2022-09-09T03:34:31;97282.63;;;19.05;87.08
41044;BME280;51680;49.806;18.774;2022-09-09T03:37:33;97284.38;;;19.14;86.82
41044;BME280;51680;49.806;18.774;2022-09-09T03:40:35;97290.03;;;19.19;86.49
41044;BME280;51680;49.806;18.774;2022-09-09T03:43:37;97292.25;;;19.23;86.56
41044;BME280;51680;49.806;18.774;2022-09-09T03:46:40;97287.00;;;19.31;86.43
41044;BME280;51680;49.806;18.774;2022-09-09T03:49:42;97291.16;;;19.34;86.17
41044;BME280;51680;49.806;18.774;2022-09-09T03:52:44;97292.84;;;19.35;86.27
41044;BME280;51680;49.806;18.774;2022-09-09T03:55:54;97290.72;;;19.38;86.09
41044;BME280;51680;49.806;18.774;2022-09-09T03:58:57;97301.00;;;19.41;86.19
41044;BME280;51680;49.806;18.774;2022-09-09T04:02:01;97292.44;;;19.47;86.00
41044;BME280;51680;49.806;18.774;2022-09-09T04:05:04;97291.59;;;19.47;85.83
41044;BME280;51680;49.806;18.774;2022-09-09T04:08:08;97298.88;;;19.45;85.75
41044;BME280;51680;49.806;18.774;2022-09-09T04:11:10;97291.75;;;19.45;85.72
41044;BME280;51680;49.806;18.774;2022-09-09T04:14:13;97298.88;;;19.45;85.50
41044;BME280;51680;49.806;18.774;2022-09-09T04:17:16;97298.03;;;19.44;85.70
41044;BME280;51680;49.806;18.774;2022-09-09T04:20:18;97296.53;;;19.42;85.71
41044;BME280;51680;49.806;18.774;2022-09-09T04:23:20;97294.41;;;19.45;85.66
41044;BME280;51680;49.806;18.774;2022-09-09T04:26:23;97297.38;;;19.42;85.50
41044;BME280;51680;49.806;18.774;2022-09-09T04:29:25;97303.34;;;19.44;85.36
41044;BME280;51680;49.806;18.774;2022-09-09T04:32:28;97294.63;;;19.52;85.20
41044;BME280;51680;49.806;18.774;2022-09-09T04:35:32;97296.34;;;19.61;85.11
41044;BME280;51680;49.806;18.774;2022-09-09T04:38:35;97288.03;;;19.81;84.50
41044;BME280;51680;49.806;18.774;2022-09-09T04:41:37;97281.78;;;19.98;83.72
41044;BME280;51680;49.806;18.774;2022-09-09T04:44:40;97285.31;;;20.32;82.58
41044;BME280;51680;49.806;18.774;2022-09-09T04:47:44;97292.19;;;20.67;80.87
41044;BME280;51680;49.806;18.774;2022-09-09T04:50:54;97286.78;;;21.08;79.63
41044;BME280;51680;49.806;18.774;2022-09-09T04:53:56;97289.47;;;21.24;78.37
41044;BME280;51680;49.806;18.774;2022-09-09T04:56:58;97297.59;;;21.23;78.21
41044;BME280;51680;49.806;18.774;2022-09-09T04:59:59;97301.91;;;21.08;78.72
41044;BME280;51680;49.806;18.774;2022-09-09T05:03:09;97302.88;;;20.91;79.42
41044;BME280;51680;49.806;18.774;2022-09-09T05:06:12;97313.63;;;20.81;79.75
41044;BME280;51680;49.806;18.774;2022-09-09T05:09:15;97312.41;;;20.68;80.21
41044;BME280;51680;49.806;18.774;2022-09-09T05:12:18;97310.06;;;20.57;80.79
41044;BME280;51680;49.806;18.774;2022-09-09T05:15:25;97315.13;;;20.84;80.03
41044;BME280;51680;49.806;18.774;2022-09-09T05:18:28;97313.34;;;20.92;79.82
41044;BME280;51680;49.806;18.774;2022-09-09T05:21:30;97322.97;;;20.93;79.63
41044;BME280;51680;49.806;18.774;2022-09-09T05:24:32;97326.47;;;21.02;79.32
41044;BME280;51680;49.806;18.774;2022-09-09T05:27:35;97329.13;;;21.18;79.07
41044;BME280;51680;49.806;18.774;2022-09-09T05:30:36;97326.16;;;21.13;79.18
41044;BME280;51680;49.806;18.774;2022-09-09T05:33:43;97332.59;;;20.94;79.82
41044;BME280;51680;49.806;18.774;2022-09-09T05:36:46;97322.59;;;20.80;80.66
41044;BME280;51680;49.806;18.774;2022-09-09T05:39:49;97326.47;;;21.02;80.49
41044;BME280;51680;49.806;18.774;2022-09-09T05:42:51;97313.53;;;21.07;80.19
41044;BME280;51680;49.806;18.774;2022-09-09T05:46:02;97322.69;;;21.28;79.02
41044;BME280;51680;49.806;18.774;2022-09-09T05:49:06;97311.84;;;21.78;77.34
41044;BME280;51680;49.806;18.774;2022-09-09T05:52:09;97307.16;;;22.50;75.21
41044;BME280;51680;49.806;18.774;2022-09-09T05:55:11;97309.72;;;22.97;72.80
41044;BME280;51680;49.806;18.774;2022-09-09T05:58:13;97302.41;;;23.44;70.87
41044;BME280;51680;49.806;18.774;2022-09-09T06:01:19;97307.72;;;23.81;69.75
41044;BME280;51680;49.806;18.774;2022-09-09T06:04:22;97300.47;;;23.38;71.24
41044;BME280;51680;49.806;18.774;2022-09-09T06:07:25;97302.88;;;23.02;71.78
41044;BME280;51680;49.806;18.774;2022-09-09T06:10:27;97292.19;;;23.70;70.43
41044;BME280;51680;49.806;18.774;2022-09-09T06:13:29;97299.75;;;24.39;67.85
41044;BME280;51680;49.806;18.774;2022-09-09T06:16:32;97297.66;;;24.20;68.18
41044;BME280;51680;49.806;18.774;2022-09-09T06:19:36;97294.41;;;24.68;67.10
41044;BME280;51680;49.806;18.774;2022-09-09T06:22:39;97306.28;;;24.65;66.65
41044;BME280;51680;49.806;18.774;2022-09-09T06:25:41;97303.16;;;25.33;65.35
41044;BME280;51680;49.806;18.774;2022-09-09T06:28:43;97298.94;;;25.72;63.59
41044;BME280;51680;49.806;18.774;2022-09-09T06:31:46;97292.09;;;26.59;61.25
41044;BME280;51680;49.806;18.774;2022-09-09T06:34:55;97292.53;;;27.22;59.46
41044;BME280;51680;49.806;18.774;2022-09-09T06:37:57;97302.25;;;27.36;59.01
41044;BME280;51680;49.806;18.774;2022-09-09T06:41:00;97300.81;;;27.34;59.57
41044;BME280;51680;49.806;18.774;2022-09-09T06:44:03;97295.03;;;28.02;56.52
41044;BME280;51680;49.806;18.774;2022-09-09T06:47:13;97289.34;;;28.55;55.40
41044;BME280;51680;49.806;18.774;2022-09-09T06:50:17;97281.97;;;29.26;52.51
41044;BME280;51680;49.806;18.774;2022-09-09T06:53:20;97292.22;;;29.73;51.51
41044;BME280;51680;49.806;18.774;2022-09-09T06:56:24;97275.31;;;30.27;49.98
41044;BME280;51680;49.806;18.774;2022-09-09T06:59:29;97285.34;;;30.92;49.36
41044;BME280;51680;49.806;18.774;2022-09-09T07:02:33;97284.81;;;31.72;47.17
41044;BME280;51680;49.806;18.774;2022-09-09T07:05:41;97274.41;;;32.84;45.72
41044;BME280;51680;49.806;18.774;2022-09-09T07:08:48;97279.09;;;33.44;43.78
41044;BME280;51680;49.806;18.774;2022-09-09T07:11:51;97286.00;;;33.24;43.99
41044;BME280;51680;49.806;18.774;2022-09-09T07:14:55;97287.28;;;32.65;45.91
41044;BME280;51680;49.806;18.774;2022-09-09T07:18:00;97286.34;;;32.48;45.95
41044;BME280;51680;49.806;18.774;2022-09-09T07:21:05;97290.13;;;33.26;45.04
41044;BME280;51680;49.806;18.774;2022-09-09T07:24:07;97285.22;;;33.84;41.47
41044;BME280;51680;49.806;18.774;2022-09-09T07:27:10;97302.03;;;34.52;42.57
41044;BME280;51680;49.806;18.774;2022-09-09T07:30:12;97292.94;;;35.06;40.88
41044;BME280;51680;49.806;18.774;2022-09-09T07:33:15;97287.16;;;35.72;40.06
41044;BME280;51680;49.806;18.774;2022-09-09T07:36:20;97286.09;;;36.15;38.13
41044;BME280;51680;49.806;18.774;2022-09-09T07:39:23;97297.59;;;36.63;38.24
41044;BME280;51680;49.806;18.774;2022-09-09T07:42:27;97294.38;;;36.30;36.52
41044;BME280;51680;49.806;18.774;2022-09-09T07:45:29;97301.50;;;35.99;37.90
41044;BME280;51680;49.806;18.774;2022-09-09T07:48:33;97292.81;;;35.71;38.30
41044;BME280;51680;49.806;18.774;2022-09-09T07:51:38;97292.38;;;35.52;37.53
41044;BME280;51680;49.806;18.774;2022-09-09T07:54:41;97293.47;;;35.56;38.12
41044;BME280;51680;49.806;18.774;2022-09-09T07:57:45;97297.78;;;34.99;38.61
41044;BME280;51680;49.806;18.774;2022-09-09T08:00:48;97290.72;;;35.03;37.89
41044;BME280;51680;49.806;18.774;2022-09-09T08:03:53;97287.28;;;34.86;35.79
41044;BME280;51680;49.806;18.774;2022-09-09T08:06:59;97287.09;;;34.93;37.32
41044;BME280;51680;49.806;18.774;2022-09-09T08:10:03;97282.00;;;35.23;37.31
41044;BME280;51680;49.806;18.774;2022-09-09T08:13:09;97287.56;;;35.11;37.78
41044;BME280;51680;49.806;18.774;2022-09-09T08:16:13;97278.31;;;35.60;36.72
41044;BME280;51680;49.806;18.774;2022-09-09T08:19:15;97278.00;;;35.83;35.76
41044;BME280;51680;49.806;18.774;2022-09-09T08:22:20;97291.75;;;36.08;35.72
41044;BME280;51680;49.806;18.774;2022-09-09T08:25:24;97288.94;;;35.93;35.48
41044;BME280;51680;49.806;18.774;2022-09-09T08:28:26;97289.25;;;35.17;35.26
41044;BME280;51680;49.806;18.774;2022-09-09T08:31:30;97291.75;;;34.21;37.57
41044;BME280;51680;49.806;18.774;2022-09-09T08:34:32;97295.00;;;34.02;38.40
41044;BME280;51680;49.806;18.774;2022-09-09T08:37:39;97293.19;;;33.91;38.16
41044;BME280;51680;49.806;18.774;2022-09-09T08:40:45;97296.19;;;33.89;38.02
41044;BME280;51680;49.806;18.774;2022-09-09T08:43:51;97286.69;;;33.75;38.68
41044;BME280;51680;49.806;18.774;2022-09-09T08:47:06;97286.09;;;33.73;35.65
41044;BME280;51680;49.806;18.774;2022-09-09T08:50:20;97285.28;;;33.40;35.71
41044;BME280;51680;49.806;18.774;2022-09-09T08:53:29;97292.16;;;33.31;38.02
41044;BME280;51680;49.806;18.774;2022-09-09T08:56:36;97280.19;;;33.43;38.25
41044;BME280;51680;49.806;18.774;2022-09-09T08:59:38;97281.91;;;33.21;37.66
41044;BME280;51680;49.806;18.774;2022-09-09T09:02:46;97278.13;;;31.97;37.21
41044;BME280;51680;49.806;18.774;2022-09-09T09:05:57;97279.09;;;31.39;40.18
41044;BME280;51680;49.806;18.774;2022-09-09T09:09:07;97270.47;;;31.19;38.58
41044;BME280;51680;49.806;18.774;2022-09-09T09:12:16;97272.19;;;30.84;38.13
41044;BME280;51680;49.806;18.774;2022-09-09T09:15:21;97258.63;;;30.72;39.53
41044;BME280;51680;49.806;18.774;2022-09-09T09:18:26;97256.53;;;30.20;39.93
41044;BME280;51680;49.806;18.774;2022-09-09T09:21:34;97257.75;;;30.24;39.73
41044;BME280;51680;49.806;18.774;2022-09-09T09:24:48;97265.66;;;30.19;40.66
41044;BME280;51680;49.806;18.774;2022-09-09T09:27:58;97256.09;;;29.56;40.25
41044;BME280;51680;49.806;18.774;2022-09-09T09:31:05;97251.16;;;29.22;40.66
41044;BME280;51680;49.806;18.774;2022-09-09T09:34:10;97245.44;;;29.12;41.23
41044;BME280;51680;49.806;18.774;2022-09-09T09:37:17;97258.34;;;29.03;40.47
41044;BME280;51680;49.806;18.774;2022-09-09T09:40:23;97261.09;;;29.21;42.36
41044;BME280;51680;49.806;18.774;2022-09-09T09:43:26;97256.69;;;29.58;41.94
41044;BME280;51680;49.806;18.774;2022-09-09T09:46:31;97265.13;;;29.86;40.63
41044;BME280;51680;49.806;18.774;2022-09-09T09:49:51;97260.16;;;30.32;40.11
41044;BME280;51680;49.806;18.774;2022-09-09T09:52:54;97270.16;;;30.61;38.59
41044;BME280;51680;49.806;18.774;2022-09-09T09:56:00;97275.09;;;30.82;39.23
41044;BME280;51680;49.806;18.774;2022-09-09T09:59:03;97281.78;;;31.27;38.70
41044;BME280;51680;49.806;18.774;2022-09-09T10:02:19;97289.34;;;31.60;37.76
41044;BME280;51680;49.806;18.774;2022-09-09T10:05:28;97290.38;;;31.88;38.63
41044;BME280;51680;49.806;18.774;2022-09-09T10:08:45;97300.34;;;31.88;36.73
41044;BME280;51680;49.806;18.774;2022-09-09T10:11:57;97297.44;;;32.12;36.05
41044;BME280;51680;49.806;18.774;2022-09-09T10:15:07;97295.78;;;32.34;35.56
41044;BME280;51680;49.806;18.774;2022-09-09T10:18:23;97287.78;;;32.39;36.33
41044;BME280;51680;49.806;18.774;2022-09-09T10:21:52;97282.78;;;32.59;35.39
41044;BME280;51680;49.806;18.774;2022-09-09T10:25:25;97276.25;;;32.55;35.71
41044;BME280;51680;49.806;18.774;2022-09-09T10:28:50;97287.22;;;32.37;35.65
41044;BME280;51680;49.806;18.774;2022-09-09T10:32:05;97288.16;;;32.08;36.26
41044;BME280;51680;49.806;18.774;2022-09-09T10:35:19;97288.66;;;31.64;37.16
41044;BME280;51680;49.806;18.774;2022-09-09T10:38:28;97288.50;;;31.18;37.59
41044;BME280;51680;49.806;18.774;2022-09-09T10:41:42;97296.38;;;30.90;37.98
41044;BME280;51680;49.806;18.774;2022-09-09T10:44:56;97298.19;;;30.78;39.75
41044;BME280;51680;49.806;18.774;2022-09-09T10:48:13;97291.72;;;30.97;37.57
41044;BME280;51680;49.806;18.774;2022-09-09T10:51:23;97284.34;;;31.04;38.29
41044;BME280;51680;49.806;18.774;2022-09-09T10:54:40;97283.19;;;30.82;37.99
41044;BME280;51680;49.806;18.774;2022-09-09T10:57:46;97290.78;;;30.74;39.07
41044;BME280;51680;49.806;18.774;2022-09-09T11:00:52;97285.59;;;30.72;39.63
41044;BME280;51680;49.806;18.774;2022-09-09T11:03:59;97281.63;;;30.75;39.91
41044;BME280;51680;49.806;18.774;2022-09-09T11:07:07;97292.56;;;30.62;39.27
41044;BME280;51680;49.806;18.774;2022-09-09T11:10:20;97283.50;;;30.56;38.84
41044;BME280;51680;49.806;18.774;2022-09-09T11:13:24;97294.72;;;30.53;38.95
41044;BME280;51680;49.806;18.774;2022-09-09T11:16:39;97293.00;;;30.59;38.86
41044;BME280;51680;49.806;18.774;2022-09-09T11:19:43;97292.03;;;30.35;39.50
41044;BME280;51680;49.806;18.774;2022-09-09T11:22:48;97302.44;;;30.07;40.03
41044;BME280;51680;49.806;18.774;2022-09-09T11:25:55;97299.34;;;30.04;39.78
41044;BME280;51680;49.806;18.774;2022-09-09T11:29:19;97304.84;;;29.97;39.14
41044;BME280;51680;49.806;18.774;2022-09-09T11:32:39;97307.28;;;29.99;39.30
41044;BME280;51680;49.806;18.774;2022-09-09T11:35:57;97301.53;;;29.95;39.61
41044;BME280;51680;49.806;18.774;2022-09-09T11:39:21;97293.97;;;30.04;38.84
41044;BME280;51680;49.806;18.774;2022-09-09T11:42:29;97292.69;;;30.06;39.61
41044;BME280;51680;49.806;18.774;2022-09-09T11:45:31;97284.97;;;29.92;37.54
41044;BME280;51680;49.806;18.774;2022-09-09T11:48:38;97289.47;;;29.98;37.70
41044;BME280;51680;49.806;18.774;2022-09-09T11:51:43;97292.31;;;29.60;36.48
41044;BME280;51680;49.806;18.774;2022-09-09T11:54:47;97282.41;;;29.54;38.54
41044;BME280;51680;49.806;18.774;2022-09-09T11:57:57;97283.59;;;29.58;39.21
41044;BME280;51680;49.806;18.774;2022-09-09T12:00:59;97288.31;;;29.69;38.29
41044;BME280;51680;49.806;18.774;2022-09-09T12:04:30;97291.00;;;29.69;36.08
41044;BME280;51680;49.806;18.774;2022-09-09T12:07:36;97291.94;;;29.57;38.05
41044;BME280;51680;49.806;18.774;2022-09-09T12:10:39;97306.41;;;29.24;39.39
41044;BME280;51680;49.806;18.774;2022-09-09T12:13:52;97312.72;;;29.36;39.64
41044;BME280;51680;49.806;18.774;2022-09-09T12:16:54;97310.41;;;29.47;39.63
41044;BME280;51680;49.806;18.774;2022-09-09T12:20:11;97315.06;;;29.26;39.22
41044;BME280;51680;49.806;18.774;2022-09-09T12:23:24;97298.88;;;29.02;40.00
41044;BME280;51680;49.806;18.774;2022-09-09T12:26:33;97308.69;;;29.21;38.91
41044;BME280;51680;49.806;18.774;2022-09-09T12:29:42;97302.66;;;28.81;38.71
41044;BME280;51680;49.806;18.774;2022-09-09T12:32:47;97298.78;;;28.71;40.29
41044;BME280;51680;49.806;18.774;2022-09-09T12:35:55;97291.56;;;28.65;38.84
41044;BME280;51680;49.806;18.774;2022-09-09T12:39:10;97281.38;;;28.16;40.11
41044;BME280;51680;49.806;18.774;2022-09-09T12:42:18;97279.72;;;28.09;41.61
41044;BME280;51680;49.806;18.774;2022-09-09T12:45:22;97287.34;;;28.25;41.43
41044;BME280;51680;49.806;18.774;2022-09-09T12:48:31;97283.38;;;28.40;42.40
41044;BME280;51680;49.806;18.774;2022-09-09T12:51:35;97277.56;;;28.56;40.98
41044;BME280;51680;49.806;18.774;2022-09-09T12:54:37;97274.66;;;28.58;41.32
41044;BME280;51680;49.806;18.774;2022-09-09T12:57:48;97277.03;;;28.79;41.91
41044;BME280;51680;49.806;18.774;2022-09-09T13:00:52;97273.47;;;28.98;41.13
41044;BME280;51680;49.806;18.774;2022-09-09T13:03:56;97268.81;;;29.11;40.88
41044;BME280;51680;49.806;18.774;2022-09-09T13:07:07;97272.25;;;29.25;41.86
41044;BME280;51680;49.806;18.774;2022-09-09T13:10:12;97267.91;;;29.24;41.66
41044;BME280;51680;49.806;18.774;2022-09-09T13:13:16;97268.97;;;29.16;41.33
41044;BME280;51680;49.806;18.774;2022-09-09T13:16:21;97273.78;;;29.14;41.73
41044;BME280;51680;49.806;18.774;2022-09-09T13:19:24;97276.06;;;29.11;41.32
41044;BME280;51680;49.806;18.774;2022-09-09T13:22:33;97272.19;;;29.00;41.26
41044;BME280;51680;49.806;18.774;2022-09-09T13:25:40;97264.56;;;28.91;41.03
41044;BME280;51680;49.806;18.774;2022-09-09T13:28:44;97268.75;;;28.87;41.12
41044;BME280;51680;49.806;18.774;2022-09-09T13:31:47;97264.63;;;28.84;41.63
41044;BME280;51680;49.806;18.774;2022-09-09T13:34:53;97264.44;;;28.79;42.12
41044;BME280;51680;49.806;18.774;2022-09-09T13:37:58;97262.78;;;28.72;41.34
41044;BME280;51680;49.806;18.774;2022-09-09T13:41:02;97260.97;;;28.66;42.33
41044;BME280;51680;49.806;18.774;2022-09-09T13:44:05;97263.06;;;28.64;43.50
41044;BME280;51680;49.806;18.774;2022-09-09T13:47:18;97248.59;;;28.58;43.11
41044;BME280;51680;49.806;18.774;2022-09-09T13:50:22;97245.09;;;28.58;43.63
41044;BME280;51680;49.806;18.774;2022-09-09T13:53:27;97229.19;;;28.56;42.88
41044;BME280;51680;49.806;18.774;2022-09-09T13:56:28;97228.19;;;28.51;42.56
41044;BME280;51680;49.806;18.774;2022-09-09T13:59:30;97226.75;;;28.48;43.53
41044;BME280;51680;49.806;18.774;2022-09-09T14:02:33;97228.19;;;28.44;43.35
41044;BME280;51680;49.806;18.774;2022-09-09T14:05:34;97228.03;;;28.39;42.92
41044;BME280;51680;49.806;18.774;2022-09-09T14:08:38;97232.53;;;28.45;43.65
41044;BME280;51680;49.806;18.774;2022-09-09T14:11:40;97228.63;;;28.35;44.44
41044;BME280;51680;49.806;18.774;2022-09-09T14:14:42;97225.13;;;28.41;42.96
41044;BME280;51680;49.806;18.774;2022-09-09T14:17:44;97218.72;;;28.42;42.77
41044;BME280;51680;49.806;18.774;2022-09-09T14:20:46;97219.75;;;28.41;43.34
41044;BME280;51680;49.806;18.774;2022-09-09T14:23:49;97218.69;;;28.35;43.02
41044;BME280;51680;49.806;18.774;2022-09-09T14:26:51;97211.50;;;28.29;43.55
41044;BME280;51680;49.806;18.774;2022-09-09T14:29:53;97208.03;;;28.22;43.91
41044;BME280;51680;49.806;18.774;2022-09-09T14:32:54;97206.41;;;28.15;43.16
41044;BME280;51680;49.806;18.774;2022-09-09T14:35:57;97207.03;;;28.04;43.85
41044;BME280;51680;49.806;18.774;2022-09-09T14:39:00;97200.69;;;27.92;43.99
41044;BME280;51680;49.806;18.774;2022-09-09T14:42:02;97199.66;;;27.80;44.23
41044;BME280;51680;49.806;18.774;2022-09-09T14:45:06;97199.03;;;27.71;44.98
41044;BME280;51680;49.806;18.774;2022-09-09T14:48:08;97200.09;;;27.64;45.76
41044;BME280;51680;49.806;18.774;2022-09-09T14:51:11;97210.63;;;27.59;45.63
41044;BME280;51680;49.806;18.774;2022-09-09T14:54:15;97213.31;;;27.52;45.74
41044;BME280;51680;49.806;18.774;2022-09-09T14:57:17;97205.91;;;27.48;45.73
41044;BME280;51680;49.806;18.774;2022-09-09T15:00:18;97203.41;;;27.46;45.83
41044;BME280;51680;49.806;18.774;2022-09-09T15:03:20;97216.19;;;27.44;46.00
41044;BME280;51680;49.806;18.774;2022-09-09T15:06:24;97210.03;;;27.44;46.28
41044;BME280;51680;49.806;18.774;2022-09-09T15:09:27;97208.38;;;27.43;46.10
41044;BME280;51680;49.806;18.774;2022-09-09T15:12:29;97221.34;;;27.39;46.12
41044;BME280;51680;49.806;18.774;2022-09-09T15:15:32;97229.59;;;27.38;45.33
41044;BME280;51680;49.806;18.774;2022-09-09T15:18:35;97223.44;;;27.31;45.42
41044;BME280;51680;49.806;18.774;2022-09-09T15:21:40;97224.66;;;27.28;45.61
41044;BME280;51680;49.806;18.774;2022-09-09T15:24:43;97223.63;;;27.23;46.11
41044;BME280;51680;49.806;18.774;2022-09-09T15:27:45;97221.13;;;27.15;45.94
41044;BME280;51680;49.806;18.774;2022-09-09T15:30:48;97228.34;;;27.08;46.31
41044;BME280;51680;49.806;18.774;2022-09-09T15:33:51;97222.16;;;27.01;46.88
41044;BME280;51680;49.806;18.774;2022-09-09T15:36:53;97223.16;;;26.93;46.87
41044;BME280;51680;49.806;18.774;2022-09-09T15:39:57;97218.59;;;26.87;46.84
41044;BME280;51680;49.806;18.774;2022-09-09T15:43:00;97210.78;;;26.79;48.44
41044;BME280;51680;49.806;18.774;2022-09-09T15:46:21;97208.91;;;26.73;47.32
41044;BME280;51680;49.806;18.774;2022-09-09T15:49:25;97208.91;;;26.67;47.56
41044;BME280;51680;49.806;18.774;2022-09-09T15:52:27;97209.91;;;26.59;48.36
41044;BME280;51680;49.806;18.774;2022-09-09T15:55:30;97208.22;;;26.52;48.76
41044;BME280;51680;49.806;18.774;2022-09-09T15:58:32;97208.38;;;26.44;48.95
41044;BME280;51680;49.806;18.774;2022-09-09T16:01:35;97215.78;;;26.35;49.25
41044;BME280;51680;49.806;18.774;2022-09-09T16:04:38;97216.78;;;26.28;49.07
41044;BME280;51680;49.806;18.774;2022-09-09T16:07:40;97217.16;;;26.25;48.67
41044;BME280;51680;49.806;18.774;2022-09-09T16:10:44;97214.06;;;26.21;48.98
41044;BME280;51680;49.806;18.774;2022-09-09T16:13:46;97208.03;;;26.13;49.61